Time;durP1;ratioP1;P1;durP2;ratioP2;P2;SDS_P1;SDS_P2;PMS_P1;PMS_P2;Temp;Humidity;BMP_temperature;BMP_pressure;BME280_temperature;BME280_humidity;BME280_pressure;Samples;Min_cycle;Max_cycle;Signal;HPM_P1;HPM_P2
2022/07/25 00:00:26;;;;;;;7.22;6.53;;;24.40;53.10;;;;;;5045784;28;20584;-64
2022/07/25 00:02:52;;;;;;;6.72;5.82;;;24.50;53.20;;;;;;5046436;28;20452;-64
2022/07/25 00:05:17;;;;;;;6.30;5.72;;;24.40;53.30;;;;;;5046837;28;20028;-63
2022/07/25 00:07:43;;;;;;;6.47;5.88;;;24.40;53.40;;;;;;5047274;28;20032;-63
2022/07/25 00:10:09;;;;;;;6.43;5.82;;;24.40;53.40;;;;;;5046378;28;20305;-64
2022/07/25 00:12:34;;;;;;;7.90;6.20;;;24.50;53.50;;;;;;5028956;28;20037;-64
2022/07/25 00:15:00;;;;;;;7.35;5.97;;;24.40;53.50;;;;;;5046747;28;20029;-64
2022/07/25 00:17:25;;;;;;;7.28;6.68;;;24.50;53.60;;;;;;5046803;28;20516;-65
2022/07/25 00:19:51;;;;;;;7.40;6.70;;;24.40;53.60;;;;;;5045662;28;20029;-63
2022/07/25 00:22:16;;;;;;;5.80;5.30;;;24.50;53.50;;;;;;5028889;28;20025;-64
2022/07/25 00:24:42;;;;;;;6.45;5.85;;;24.40;53.50;;;;;;5036061;28;20033;-63
2022/07/25 00:27:07;;;;;;;7.20;6.55;;;24.40;53.50;;;;;;5046835;28;20409;-64
2022/07/25 00:29:33;;;;;;;6.68;5.95;;;24.50;53.60;;;;;;5038985;28;20174;-64
2022/07/25 00:31:58;;;;;;;8.02;7.03;;;24.40;53.50;;;;;;5046199;28;20032;-64
2022/07/25 00:34:24;;;;;;;8.30;6.30;;;24.40;53.60;;;;;;5045976;28;20345;-63
2022/07/25 00:36:49;;;;;;;7.57;6.10;;;24.40;54.30;;;;;;5046553;28;20033;-64
2022/07/25 00:39:15;;;;;;;7.22;6.53;;;24.40;53.70;;;;;;5045991;28;20048;-64
2022/07/25 00:41:40;;;;;;;7.57;6.78;;;24.40;53.70;;;;;;5029034;28;20108;-63
2022/07/25 00:44:06;;;;;;;6.30;5.70;;;24.40;53.80;;;;;;5045621;28;20032;-64
2022/07/25 00:46:32;;;;;;;6.78;6.18;;;24.40;53.80;;;;;;5046570;28;20036;-63
2022/07/25 00:48:57;;;;;;;7.38;6.53;;;24.40;53.90;;;;;;5045882;28;20025;-64
2022/07/25 00:51:23;;;;;;;7.85;6.85;;;24.40;53.90;;;;;;5045720;28;20080;-63
2022/07/25 00:53:48;;;;;;;7.63;6.75;;;24.40;54.60;;;;;;5011632;28;20105;-64
2022/07/25 00:56:14;;;;;;;7.00;6.40;;;24.40;54.10;;;;;;5046821;28;20437;-64
2022/07/25 00:58:39;;;;;;;8.02;7.32;;;24.40;54.10;;;;;;5027684;28;20100;-64
2022/07/25 01:01:05;;;;;;;7.05;6.45;;;24.40;54.20;;;;;;5046173;28;20044;-64
2022/07/25 01:03:30;;;;;;;7.35;6.75;;;24.40;54.20;;;;;;5045994;28;20044;-64
2022/07/25 01:05:56;;;;;;;7.35;6.68;;;24.40;54.20;;;;;;5046543;28;20503;-63
2022/07/25 01:08:21;;;;;;;7.38;6.75;;;24.40;54.20;;;;;;5050231;28;20029;-63
2022/07/25 01:10:47;;;;;;;7.90;7.10;;;24.40;54.20;;;;;;5050259;28;20105;-63
2022/07/25 01:13:13;;;;;;;7.95;7.10;;;24.40;54.20;;;;;;5032566;28;20029;-64
2022/07/25 01:15:38;;;;;;;7.63;6.97;;;24.40;54.20;;;;;;5040539;28;20693;-64
2022/07/25 01:18:04;;;;;;;7.53;6.75;;;24.40;54.20;;;;;;5048612;28;20055;-63
2022/07/25 01:20:30;;;;;;;7.40;6.70;;;24.40;54.30;;;;;;5022145;28;20109;-64
2022/07/25 01:22:56;;;;;;;7.80;7.07;;;24.40;54.30;;;;;;5012167;28;20026;-63
2022/07/25 01:25:21;;;;;;;7.65;6.95;;;24.40;54.40;;;;;;5036566;28;20033;-64
2022/07/25 01:27:47;;;;;;;7.50;6.75;;;24.40;54.50;;;;;;5049710;28;20094;-64
2022/07/25 01:30:14;;;;;;;7.65;6.97;;;24.40;54.40;;;;;;5049653;28;20413;-63
2022/07/25 01:32:40;;;;;;;6.97;6.38;;;24.40;54.50;;;;;;5031199;28;20398;-64
2022/07/25 01:35:06;;;;;;;8.32;7.53;;;24.40;54.50;;;;;;5011633;28;20044;-64
2022/07/25 01:37:31;;;;;;;8.88;7.20;;;24.40;54.60;;;;;;5011466;28;20025;-64
2022/07/25 01:39:57;;;;;;;7.57;6.88;;;24.40;54.70;;;;;;4998211;28;20028;-64
2022/07/25 01:42:22;;;;;;;8.30;7.53;;;24.40;54.70;;;;;;5049164;28;20040;-64
2022/07/25 01:44:48;;;;;;;7.88;7.18;;;24.40;54.70;;;;;;5048738;28;20029;-64
2022/07/25 01:47:13;;;;;;;8.35;7.65;;;24.40;54.80;;;;;;5050548;28;20404;-64
2022/07/25 01:49:39;;;;;;;7.85;7.15;;;24.40;54.70;;;;;;5032247;28;20028;-64
2022/07/25 01:52:05;;;;;;;7.60;6.90;;;24.30;54.80;;;;;;5047071;28;20446;-64
2022/07/25 01:54:31;;;;;;;8.30;7.60;;;24.40;54.90;;;;;;5049619;28;20040;-63
2022/07/25 01:56:56;;;;;;;8.85;8.07;;;24.40;54.90;;;;;;5034784;28;20036;-63
2022/07/25 01:59:22;;;;;;;7.88;7.18;;;24.40;54.90;;;;;;5048594;28;20025;-63
2022/07/25 02:01:47;;;;;;;8.52;7.65;;;24.30;54.90;;;;;;5042484;28;20029;-64
2022/07/25 02:04:13;;;;;;;8.48;7.68;;;24.40;55.00;;;;;;5049479;28;20079;-63
2022/07/25 02:06:40;;;;;;;8.25;7.45;;;24.40;55.00;;;;;;5038525;28;20025;-64
2022/07/25 02:09:06;;;;;;;7.53;6.82;;;24.40;54.90;;;;;;5048531;28;20521;-64
2022/07/25 02:11:31;;;;;;;8.60;7.72;;;24.30;54.90;;;;;;5048888;28;20501;-64
2022/07/25 02:13:57;;;;;;;9.90;6.88;;;24.30;54.90;;;;;;5048624;28;20351;-64
2022/07/25 02:16:22;;;;;;;9.35;7.93;;;24.30;54.90;;;;;;5041703;28;20412;-64
2022/07/25 02:18:48;;;;;;;7.82;7.13;;;24.30;54.90;;;;;;5048028;28;20033;-63
2022/07/25 02:21:13;;;;;;;9.02;8.13;;;24.30;54.90;;;;;;5035134;28;20032;-64
2022/07/25 02:23:39;;;;;;;8.00;7.28;;;24.30;54.90;;;;;;5047192;28;20581;-64
2022/07/25 02:26:05;;;;;;;8.05;7.38;;;24.30;55.00;;;;;;5048657;28;20407;-64
2022/07/25 02:28:30;;;;;;;7.72;6.95;;;24.30;55.00;;;;;;5048445;28;20037;-64
2022/07/25 02:30:56;;;;;;;8.68;7.82;;;24.30;55.00;;;;;;5048391;28;20079;-64
2022/07/25 02:33:21;;;;;;;9.85;8.20;;;24.30;55.10;;;;;;5048575;28;20039;-64
2022/07/25 02:35:47;;;;;;;8.85;8.05;;;24.30;55.10;;;;;;5047198;28;20561;-64
2022/07/25 02:38:19;;;;;;;8.85;7.95;;;24.30;55.10;;;;;;5049000;28;20105;-64
2022/07/25 02:40:48;;;;;;;8.25;7.47;;;24.30;55.10;;;;;;5048326;28;20027;-64
2022/07/25 02:43:14;;;;;;;8.25;7.45;;;24.30;55.10;;;;;;5047550;28;20029;-63
2022/07/25 02:45:39;;;;;;;8.55;7.80;;;24.30;55.10;;;;;;5047153;28;20025;-63
2022/07/25 02:48:05;;;;;;;7.60;6.90;;;24.30;55.10;;;;;;5031575;28;20019;-63
2022/07/25 02:50:30;;;;;;;9.73;8.05;;;24.30;55.10;;;;;;5048029;28;20670;-64
2022/07/25 02:52:56;;;;;;;8.48;7.72;;;24.30;55.10;;;;;;5048424;28;20025;-63
2022/07/25 02:55:21;;;;;;;8.98;8.18;;;24.20;55.10;;;;;;5048341;28;20036;-63
2022/07/25 02:57:47;;;;;;;9.75;7.63;;;24.30;55.20;;;;;;5048237;28;20029;-63
2022/07/25 03:00:13;;;;;;;8.48;7.78;;;24.30;55.20;;;;;;5047957;28;20028;-64
2022/07/25 03:02:39;;;;;;;8.93;8.13;;;24.20;55.10;;;;;;5040611;28;20499;-64
2022/07/25 03:05:06;;;;;;;8.70;7.75;;;24.30;55.20;;;;;;5048267;28;20116;-63
2022/07/25 03:07:32;;;;;;;8.65;7.85;;;24.20;55.20;;;;;;5048314;28;20171;-64
2022/07/25 03:09:58;;;;;;;8.35;7.57;;;24.20;55.20;;;;;;5047438;28;20364;-63
2022/07/25 03:12:23;;;;;;;8.70;7.85;;;24.20;55.20;;;;;;5036623;28;20053;-64
2022/07/25 03:14:49;;;;;;;8.50;7.70;;;24.20;55.20;;;;;;5048045;28;20037;-64
2022/07/25 03:17:14;;;;;;;8.52;7.72;;;24.20;55.30;;;;;;5048323;28;20025;-64
2022/07/25 03:19:40;;;;;;;9.43;7.20;;;24.20;55.30;;;;;;5046847;28;20033;-64
2022/07/25 03:22:05;;;;;;;8.38;7.57;;;24.20;55.30;;;;;;5047195;28;20417;-63
2022/07/25 03:24:31;;;;;;;8.32;7.53;;;24.20;55.30;;;;;;5047510;28;20056;-64
2022/07/25 03:26:56;;;;;;;8.02;7.32;;;24.20;56.00;;;;;;5047561;28;20033;-64
2022/07/25 03:29:22;;;;;;;8.43;7.72;;;24.20;55.30;;;;;;5046710;28;20093;-64
2022/07/25 03:31:47;;;;;;;9.20;8.30;;;24.20;55.30;;;;;;5046691;28;20045;-64
2022/07/25 03:34:13;;;;;;;9.05;8.25;;;24.20;55.30;;;;;;5039530;28;20060;-64
2022/07/25 03:36:38;;;;;;;8.73;7.88;;;24.20;55.20;;;;;;5046426;28;20029;-64
2022/07/25 03:39:04;;;;;;;8.13;7.43;;;24.20;55.20;;;;;;5046817;28;20559;-64
2022/07/25 03:41:29;;;;;;;9.10;8.25;;;24.20;55.20;;;;;;5012569;28;20037;-64
2022/07/25 03:43:55;;;;;;;8.40;7.63;;;24.20;55.10;;;;;;5047373;28;20031;-64
2022/07/25 03:46:20;;;;;;;8.43;7.68;;;24.20;55.10;;;;;;5039036;28;20031;-63
2022/07/25 03:48:46;;;;;;;8.55;7.78;;;24.20;55.10;;;;;;5050530;28;20029;-64
2022/07/25 03:51:11;;;;;;;8.60;7.80;;;24.20;55.10;;;;;;5059245;28;20117;-64
2022/07/25 03:54:00;;;;;;;8.25;7.45;;;24.20;55.10;;;;;;5040221;28;20493;-63
2022/07/25 03:56:22;;;;;;;7.60;6.85;;;24.20;55.10;;;;;;5046965;28;20108;-63
2022/07/25 03:58:48;;;;;;;8.20;7.50;;;24.20;55.10;;;;;;5033371;28;20112;-64
2022/07/25 04:01:13;;;;;;;8.68;7.82;;;24.20;55.10;;;;;;5047006;28;20106;-64
2022/07/25 04:03:39;;;;;;;7.57;6.90;;;24.20;55.20;;;;;;5046797;28;20052;-64
2022/07/25 04:06:04;;;;;;;8.68;7.88;;;24.20;55.10;;;;;;5045166;28;20029;-64
2022/07/25 04:08:30;;;;;;;8.65;7.90;;;24.20;55.20;;;;;;5045715;28;20029;-63
2022/07/25 04:10:55;;;;;;;8.63;7.70;;;24.20;55.20;;;;;;5046208;28;20025;-63
2022/07/25 04:13:21;;;;;;;9.25;8.27;;;24.20;55.20;;;;;;5046373;28;20512;-64
2022/07/25 04:15:46;;;;;;;8.27;7.43;;;24.20;55.20;;;;;;5047140;28;20074;-64
2022/07/25 04:18:12;;;;;;;9.20;7.63;;;24.20;55.20;;;;;;5046535;28;20025;-63
2022/07/25 04:20:37;;;;;;;8.23;7.43;;;24.20;55.20;;;;;;5028598;28;20532;-64
2022/07/25 04:23:03;;;;;;;8.40;7.47;;;24.20;55.20;;;;;;5046261;28;20127;-64
2022/07/25 04:25:29;;;;;;;8.50;7.70;;;24.20;55.20;;;;;;5046434;28;20021;-63
2022/07/25 04:27:55;;;;;;;7.90;7.20;;;24.20;55.20;;;;;;5046356;28;20029;-64
2022/07/25 04:30:20;;;;;;;7.88;7.18;;;24.20;55.20;;;;;;5046113;28;20128;-63
2022/07/25 04:32:46;;;;;;;8.00;7.25;;;24.20;55.20;;;;;;5046694;28;20464;-63
2022/07/25 04:35:11;;;;;;;8.95;6.97;;;24.20;55.20;;;;;;5046424;28;20091;-64
2022/07/25 04:37:37;;;;;;;8.90;8.00;;;24.20;55.20;;;;;;5045057;28;20040;-64
2022/07/25 04:40:04;;;;;;;8.07;7.38;;;24.20;55.20;;;;;;5025945;28;20398;-64
2022/07/25 04:42:29;;;;;;;7.50;6.90;;;24.20;55.20;;;;;;5007796;28;20104;-64
2022/07/25 04:44:54;;;;;;;8.07;7.38;;;24.20;55.20;;;;;;5044680;28;20017;-63
2022/07/25 04:47:20;;;;;;;7.82;7.13;;;24.20;55.30;;;;;;5046329;28;20493;-64
2022/07/25 04:49:45;;;;;;;7.72;7.03;;;24.20;55.30;;;;;;5045963;28;20033;-64
2022/07/25 04:52:11;;;;;;;7.30;6.60;;;24.20;55.30;;;;;;5046223;28;20036;-64
2022/07/25 04:54:36;;;;;;;7.75;7.15;;;24.20;55.30;;;;;;5062100;28;20033;-63
2022/07/25 04:57:03;;;;;;;8.90;7.82;;;24.20;55.30;;;;;;5046731;28;20746;-64
2022/07/25 04:59:30;;;;;;;8.05;7.25;;;24.20;55.30;;;;;;5045793;28;20033;-64
2022/07/25 05:01:55;;;;;;;8.00;7.30;;;24.20;55.30;;;;;;5027875;28;20026;-64
2022/07/25 05:04:21;;;;;;;7.15;6.55;;;24.20;55.30;;;;;;5046253;28;20039;-64
2022/07/25 05:06:46;;;;;;;8.20;7.50;;;24.20;55.30;;;;;;5046992;28;20036;-64
2022/07/25 05:09:12;;;;;;;8.48;7.68;;;24.20;55.30;;;;;;5045762;28;20456;-63
2022/07/25 05:11:37;;;;;;;8.43;7.63;;;24.20;55.20;;;;;;5028257;28;20036;-64
2022/07/25 05:14:03;;;;;;;8.43;7.63;;;24.30;55.30;;;;;;5045801;28;20155;-64
2022/07/25 05:16:28;;;;;;;7.97;7.28;;;24.20;55.20;;;;;;5044876;28;20032;-63
2022/07/25 05:18:54;;;;;;;7.50;6.80;;;24.20;55.10;;;;;;5045382;28;20037;-64
2022/07/25 05:21:19;;;;;;;7.82;7.10;;;24.20;55.00;;;;;;5045771;28;20162;-64
2022/07/25 05:23:45;;;;;;;8.27;7.45;;;24.30;55.10;;;;;;5046099;28;20098;-64
2022/07/25 05:26:10;;;;;;;7.78;7.07;;;24.30;55.00;;;;;;5046016;22;20053;-63
2022/07/25 05:28:36;;;;;;;7.43;6.72;;;24.30;54.90;;;;;;5024607;28;20461;-64
2022/07/25 05:31:01;;;;;;;7.70;7.00;;;24.20;54.80;;;;;;5025475;28;20049;-64
2022/07/25 05:33:27;;;;;;;7.90;7.20;;;24.30;54.80;;;;;;5025535;28;20037;-64
2022/07/25 05:35:52;;;;;;;8.63;7.88;;;24.30;54.80;;;;;;5026081;28;20033;-64
2022/07/25 05:38:18;;;;;;;7.63;6.93;;;24.30;54.70;;;;;;5024978;28;20110;-64
2022/07/25 05:40:44;;;;;;;7.47;6.82;;;24.30;54.60;;;;;;5025876;28;20098;-63
2022/07/25 05:43:10;;;;;;;7.70;6.97;;;24.30;54.60;;;;;;5025582;28;20445;-64
2022/07/25 05:45:35;;;;;;;8.00;7.25;;;24.30;54.60;;;;;;5025812;28;20029;-63
2022/07/25 05:48:01;;;;;;;7.53;6.93;;;24.30;54.50;;;;;;5025663;28;20029;-63
2022/07/25 05:50:26;;;;;;;7.15;6.45;;;24.30;54.50;;;;;;5012456;28;20026;-64
2022/07/25 05:52:52;;;;;;;7.85;7.15;;;24.30;54.50;;;;;;5005919;28;20022;-64
2022/07/25 05:55:18;;;;;;;7.55;6.85;;;24.30;54.40;;;;;;5012252;28;20025;-63
2022/07/25 05:57:43;;;;;;;7.30;6.53;;;24.30;54.30;;;;;;5028615;28;20539;-63
2022/07/25 06:00:10;;;;;;;6.90;6.25;;;24.40;54.30;;;;;;5028761;28;20030;-63
2022/07/25 06:02:35;;;;;;;7.55;6.55;;;24.30;54.20;;;;;;5029546;28;20041;-63
2022/07/25 06:05:01;;;;;;;6.32;5.82;;;24.30;54.10;;;;;;5029249;28;20034;-63
2022/07/25 06:07:26;;;;;;;6.85;6.25;;;24.40;54.10;;;;;;5029058;28;20045;-63
2022/07/25 06:09:52;;;;;;;5.97;5.45;;;24.40;54.00;;;;;;5028983;28;20383;-63
2022/07/25 06:12:17;;;;;;;6.82;6.15;;;24.40;53.90;;;;;;5029471;28;20108;-63
2022/07/25 06:14:43;;;;;;;6.85;6.13;;;24.40;53.80;;;;;;5029239;28;20044;-64
2022/07/25 06:17:08;;;;;;;6.00;5.50;;;24.50;53.70;;;;;;5029456;28;20292;-63
2022/07/25 06:19:34;;;;;;;6.90;6.15;;;24.50;53.60;;;;;;5029506;28;20038;-64
2022/07/25 06:21:59;;;;;;;7.22;6.63;;;24.50;53.60;;;;;;5029517;28;20441;-63
2022/07/25 06:24:25;;;;;;;8.15;6.22;;;24.50;53.60;;;;;;5029954;28;20045;-63
2022/07/25 06:26:50;;;;;;;6.57;6.07;;;24.50;53.60;;;;;;5030479;28;20049;-64
2022/07/25 06:29:16;;;;;;;6.47;5.88;;;24.50;53.60;;;;;;5027554;28;20041;-63
2022/07/25 06:31:41;;;;;;;6.45;5.85;;;24.50;53.50;;;;;;5027504;28;20095;-64
2022/07/25 06:34:07;;;;;;;7.20;6.55;;;24.50;53.50;;;;;;5026856;28;20029;-64
2022/07/25 06:36:33;;;;;;;7.30;6.60;;;24.50;54.10;;;;;;5027095;28;20053;-64
2022/07/25 06:38:58;;;;;;;7.63;6.35;;;24.50;53.50;;;;;;5026927;28;20022;-64
2022/07/25 06:41:24;;;;;;;7.93;7.13;;;24.50;53.50;;;;;;5026610;28;20067;-63
2022/07/25 06:43:49;;;;;;;7.20;6.50;;;24.60;53.70;;;;;;5026789;28;20035;-64
2022/07/25 06:46:15;;;;;;;7.45;6.68;;;24.60;53.60;;;;;;5029391;28;20025;-64
2022/07/25 06:48:40;;;;;;;7.50;6.80;;;24.70;53.70;;;;;;5035146;28;20545;-63
2022/07/25 06:51:06;;;;;;;8.40;7.70;;;24.70;53.80;;;;;;5030354;28;20167;-64
2022/07/25 06:53:31;;;;;;;8.18;7.45;;;24.60;53.90;;;;;;5027586;28;20120;-63
2022/07/25 06:55:57;;;;;;;8.48;7.68;;;24.70;54.00;;;;;;5028443;28;20028;-63
2022/07/25 06:58:22;;;;;;;8.25;7.13;;;24.70;54.30;;;;;;5027737;28;20105;-64
2022/07/25 07:00:49;;;;;;;10.35;7.80;;;24.70;54.10;;;;;;5023608;28;20025;-63
2022/07/25 07:03:14;;;;;;;8.93;8.13;;;24.70;54.20;;;;;;5026855;28;20481;-63
2022/07/25 07:05:40;;;;;;;8.85;8.02;;;24.70;54.60;;;;;;5027269;28;20037;-63
2022/07/25 07:08:06;;;;;;;9.15;7.95;;;24.80;54.40;;;;;;5028834;28;20026;-63
2022/07/25 07:10:31;;;;;;;8.40;7.60;;;24.80;54.40;;;;;;5028721;28;20022;-63
2022/07/25 07:13:08;;;;;;;9.60;7.80;;;24.80;54.30;;;;;;5028129;28;20018;-64
2022/07/25 07:15:34;;;;;;;10.18;7.80;;;24.80;54.30;;;;;;5028539;28;20037;-62
2022/07/25 07:17:59;;;;;;;11.85;8.50;;;24.80;54.20;;;;;;5029244;28;20040;-63
2022/07/25 07:20:25;;;;;;;9.18;8.38;;;24.90;54.40;;;;;;5029570;28;20124;-63
2022/07/25 07:22:51;;;;;;;9.52;8.73;;;24.90;54.40;;;;;;5027538;28;20041;-63
2022/07/25 07:25:17;;;;;;;8.85;7.95;;;24.90;54.10;;;;;;5027187;28;20417;-63
2022/07/25 07:27:43;;;;;;;9.80;8.00;;;25.00;54.10;;;;;;5028178;28;20038;-63
2022/07/25 07:30:09;;;;;;;8.38;7.55;;;24.90;54.20;;;;;;5028734;28;20029;-63
2022/07/25 07:32:35;;;;;;;8.98;8.07;;;24.90;54.10;;;;;;5027745;28;20668;-63
2022/07/25 07:35:00;;;;;;;8.70;7.90;;;25.00;54.80;;;;;;5027252;28;20071;-63
2022/07/25 07:37:26;;;;;;;9.85;8.82;;;25.00;53.80;;;;;;5027537;28;20040;-64
2022/07/25 07:39:51;;;;;;;9.60;8.60;;;25.00;53.70;;;;;;5027221;28;20021;-63
2022/07/25 07:42:17;;;;;;;8.50;7.65;;;25.10;54.00;;;;;;5027009;28;20037;-62
2022/07/25 07:44:42;;;;;;;9.35;7.57;;;25.10;53.70;;;;;;5027131;28;20034;-64
2022/07/25 07:47:08;;;;;;;9.15;8.25;;;25.10;53.90;;;;;;5017640;28;20025;-63
2022/07/25 07:49:33;;;;;;;9.73;8.73;;;25.10;54.00;;;;;;5026872;28;20025;-63
2022/07/25 07:51:59;;;;;;;8.32;7.63;;;25.10;54.00;;;;;;5027100;28;20025;-63
2022/07/25 07:57:09;;;;;;;9.23;8.35;;;25.10;53.90;;;;;;5026806;28;20076;-64
2022/07/25 07:59:34;;;;;;;9.18;8.27;;;25.10;53.80;;;;;;5026568;28;20037;-63
2022/07/25 08:02:00;;;;;;;9.90;8.88;;;25.10;53.80;;;;;;5027185;28;20033;-63
2022/07/25 08:04:25;;;;;;;8.43;7.63;;;25.10;53.80;;;;;;4999215;28;20041;-63
2022/07/25 08:06:50;;;;;;;9.45;8.50;;;25.10;53.70;;;;;;5026714;28;20053;-63
2022/07/25 08:09:16;;;;;;;9.07;8.25;;;25.10;53.80;;;;;;5026005;28;20029;-63
2022/07/25 08:11:41;;;;;;;9.15;8.35;;;25.10;53.60;;;;;;5026913;28;20034;-63
2022/07/25 08:14:07;;;;;;;10.38;8.93;;;25.20;53.60;;;;;;5025894;28;20025;-64
2022/07/25 08:16:32;;;;;;;9.40;8.60;;;25.20;53.60;;;;;;5026334;28;20037;-64
2022/07/25 08:18:58;;;;;;;9.93;8.55;;;25.20;53.30;;;;;;5027005;28;20104;-63
2022/07/25 08:21:24;;;;;;;9.40;8.50;;;25.10;53.60;;;;;;5026779;28;20603;-63
2022/07/25 08:23:49;;;;;;;9.60;8.75;;;25.10;53.60;;;;;;5026167;28;20025;-63
2022/07/25 08:26:15;;;;;;;10.68;8.80;;;25.10;53.50;;;;;;5026341;28;20038;-62
2022/07/25 08:28:41;;;;;;;9.15;7.90;;;25.20;53.40;;;;;;5025818;28;20025;-64
2022/07/25 08:31:06;;;;;;;9.75;8.73;;;25.20;53.40;;;;;;5026981;28;20497;-64
2022/07/25 08:33:32;;;;;;;9.48;8.63;;;25.20;53.30;;;;;;5011825;28;20545;-64
2022/07/25 08:35:57;;;;;;;9.40;8.50;;;25.20;53.20;;;;;;5026878;28;20026;-64
2022/07/25 08:38:24;;;;;;;9.65;8.75;;;25.30;53.20;;;;;;5025801;28;20545;-61
2022/07/25 08:40:50;;;;;;;9.02;8.02;;;25.30;53.20;;;;;;5026456;28;20029;-64
2022/07/25 08:43:15;;;;;;;9.20;8.40;;;25.20;53.10;;;;;;5015379;28;20035;-63
2022/07/25 08:45:43;;;;;;;9.48;8.50;;;25.30;53.00;;;;;;5026152;28;20036;-64
2022/07/25 08:48:09;;;;;;;9.57;8.68;;;25.30;52.90;;;;;;5016510;28;20543;-63
2022/07/25 08:50:35;;;;;;;9.23;8.32;;;25.30;52.80;;;;;;5025014;28;20292;-63
2022/07/25 08:53:00;;;;;;;10.13;8.45;;;25.40;52.60;;;;;;5026704;28;20034;-62
2022/07/25 08:55:27;;;;;;;9.18;8.38;;;25.40;52.60;;;;;;5008556;28;20401;-64
2022/07/25 08:57:53;;;;;;;9.73;8.93;;;25.40;52.50;;;;;;5026621;28;20033;-63
2022/07/25 09:00:20;;;;;;;10.15;8.43;;;25.40;52.40;;;;;;5026321;28;20030;-64
2022/07/25 09:02:59;;;;;;;10.02;9.13;;;25.40;52.20;;;;;;5026226;28;20516;-64
2022/07/25 09:05:26;;;;;;;9.63;8.00;;;25.50;52.20;;;;;;5025894;28;20034;-64
2022/07/25 09:07:52;;;;;;;9.85;8.18;;;25.40;52.20;;;;;;5011481;28;20040;-63
2022/07/25 09:10:25;;;;;;;9.75;8.38;;;25.50;52.20;;;;;;5026191;28;20026;-63
2022/07/25 09:13:03;;;;;;;9.48;8.55;;;25.50;51.90;;;;;;5026082;28;20528;-63
2022/07/25 09:15:30;;;;;;;10.02;8.60;;;25.50;51.70;;;;;;5025935;28;20095;-63
2022/07/25 09:17:57;;;;;;;10.05;9.05;;;25.50;51.60;;;;;;5025450;28;20029;-64
2022/07/25 09:20:23;;;;;;;9.77;8.52;;;25.50;51.60;;;;;;5025884;28;20077;-64
2022/07/25 09:22:48;;;;;;;9.60;8.75;;;25.50;51.60;;;;;;5025701;28;20053;-64
2022/07/25 09:25:24;;;;;;;9.68;8.77;;;25.50;51.40;;;;;;5025729;28;20034;-65
2022/07/25 09:27:49;;;;;;;9.40;8.45;;;25.50;51.30;;;;;;5027080;28;20029;-63
2022/07/25 09:30:15;;;;;;;9.15;8.35;;;25.50;51.00;;;;;;5028672;28;20033;-64
2022/07/25 09:32:41;;;;;;;8.80;8.00;;;25.50;50.80;;;;;;5029710;28;20431;-64
2022/07/25 09:35:06;;;;;;;9.27;8.38;;;25.50;50.70;;;;;;5029581;28;20405;-64
2022/07/25 09:37:32;;;;;;;9.48;8.50;;;25.50;50.90;;;;;;5029458;28;20601;-63
2022/07/25 09:39:57;;;;;;;9.15;8.13;;;25.50;50.40;;;;;;5030077;28;20482;-63
2022/07/25 09:42:24;;;;;;;9.68;8.55;;;25.50;50.30;;;;;;5029631;28;20142;-63
2022/07/25 09:45:03;;;;;;;9.15;8.30;;;25.50;50.30;;;;;;5029578;28;20029;-63
2022/07/25 09:47:29;;;;;;;9.77;7.97;;;25.60;50.20;;;;;;5029431;28;20148;-64
2022/07/25 09:49:55;;;;;;;8.57;7.53;;;25.50;50.00;;;;;;5029315;28;20034;-64
2022/07/25 09:52:20;;;;;;;9.05;8.25;;;25.50;50.00;;;;;;5029620;28;20521;-63
2022/07/25 09:54:46;;;;;;;9.02;8.10;;;25.60;49.70;;;;;;5029142;28;20034;-64
2022/07/25 09:57:11;;;;;;;8.70;7.57;;;25.60;49.70;;;;;;5029015;28;20045;-64
2022/07/25 09:59:38;;;;;;;9.32;8.52;;;25.60;49.90;;;;;;5028892;28;20076;-64
2022/07/25 10:02:14;;;;;;;9.98;8.10;;;25.60;49.40;;;;;;5029662;28;20443;-64
2022/07/25 10:04:45;;;;;;;9.88;8.57;;;25.60;49.40;;;;;;5018793;28;20119;-63
2022/07/25 10:07:13;;;;;;;9.40;8.20;;;25.60;49.30;;;;;;5011767;28;20051;-63
2022/07/25 10:09:49;;;;;;;9.05;8.07;;;25.60;49.20;;;;;;5028580;28;20044;-63
2022/07/25 10:12:19;;;;;;;9.40;8.50;;;25.60;49.30;;;;;;5029353;28;20079;-64
2022/07/25 10:15:06;;;;;;;8.32;7.63;;;25.60;48.90;;;;;;5028984;28;20422;-63
2022/07/25 10:17:31;;;;;;;8.80;8.00;;;25.70;48.80;;;;;;5029043;28;20109;-63
2022/07/25 10:19:59;;;;;;;8.32;7.53;;;25.70;48.80;;;;;;5028755;28;20105;-63
2022/07/25 10:22:38;;;;;;;8.52;7.72;;;25.70;48.80;;;;;;5028721;28;20041;-64
2022/07/25 10:25:15;;;;;;;8.55;7.70;;;25.70;48.50;;;;;;5026902;28;20041;-64
2022/07/25 10:27:49;;;;;;;9.25;7.63;;;25.70;49.40;;;;;;5029243;28;20194;-64
2022/07/25 10:30:22;;;;;;;8.20;7.40;;;25.60;49.10;;;;;;5028643;28;20084;-64
2022/07/25 10:32:57;;;;;;;7.63;6.95;;;25.60;48.90;;;;;;5028337;28;20037;-64
2022/07/25 10:35:24;;;;;;;8.80;8.02;;;25.70;48.50;;;;;;5028165;28;20084;-63
2022/07/25 10:37:50;;;;;;;8.55;7.85;;;25.70;48.20;;;;;;5028540;28;20041;-64
2022/07/25 10:40:41;;;;;;;8.57;7.78;;;25.70;48.50;;;;;;5028170;28;20095;-63
2022/07/25 10:43:08;;;;;;;8.80;8.00;;;25.80;48.30;;;;;;5028367;28;20029;-64
2022/07/25 10:45:42;;;;;;;9.55;8.65;;;25.80;48.40;;;;;;5028711;28;20597;-63
2022/07/25 10:48:09;;;;;;;8.50;7.75;;;25.80;48.20;;;;;;5035048;28;20033;-64
2022/07/25 10:51:04;;;;;;;8.40;7.60;;;25.80;48.20;;;;;;5029218;28;20581;-63
2022/07/25 10:53:34;;;;;;;8.25;7.45;;;25.80;48.90;;;;;;5029119;28;20043;-63
2022/07/25 10:56:08;;;;;;;8.40;7.60;;;25.80;48.60;;;;;;5029762;28;20017;-64
2022/07/25 10:58:56;;;;;;;8.43;7.70;;;25.80;48.60;;;;;;5027279;28;20030;-63
2022/07/25 11:01:32;;;;;;;8.95;7.88;;;25.80;48.70;;;;;;5028210;28;20471;-64
2022/07/25 11:03:59;;;;;;;8.75;7.95;;;25.80;48.20;;;;;;5028390;28;20069;-64
2022/07/25 11:06:31;;;;;;;7.75;7.07;;;25.80;48.50;;;;;;5028116;28;20456;-64
2022/07/25 11:08:59;;;;;;;8.15;7.25;;;25.70;48.80;;;;;;5000791;28;20045;-63
2022/07/25 11:11:39;;;;;;;8.32;7.47;;;25.70;48.70;;;;;;5028115;28;20033;-63
2022/07/25 11:14:05;;;;;;;7.80;7.07;;;25.70;48.80;;;;;;5027570;28;20079;-64
2022/07/25 11:16:30;;;;;;;11.85;8.18;;;25.70;49.00;;;;;;5028222;28;20807;-64
2022/07/25 11:18:56;;;;;;;8.52;7.80;;;25.70;48.60;;;;;;5027572;28;20163;-63
2022/07/25 11:21:21;;;;;;;8.40;7.60;;;25.70;48.90;;;;;;5027757;28;20500;-63
2022/07/25 11:23:50;;;;;;;8.52;7.72;;;25.80;48.80;;;;;;5010096;28;20568;-64
2022/07/25 11:26:16;;;;;;;9.20;7.35;;;25.80;48.20;;;;;;5027517;28;20029;-64
2022/07/25 11:28:46;;;;;;;9.30;7.80;;;25.90;48.30;;;;;;5027331;28;20033;-63
2022/07/25 11:31:13;;;;;;;8.55;7.65;;;25.90;48.00;;;;;;5015241;28;20029;-64
2022/07/25 11:33:39;;;;;;;9.30;8.40;;;25.90;47.90;;;;;;5027631;28;20037;-63
2022/07/25 11:36:05;;;;;;;8.85;7.80;;;26.00;47.80;;;;;;5019042;28;20109;-64
2022/07/25 11:38:30;;;;;;;8.57;7.68;;;26.00;47.80;;;;;;5027937;28;20462;-63
2022/07/25 11:40:55;;;;;;;8.30;7.50;;;26.00;47.90;;;;;;5027389;28;20032;-63
2022/07/25 11:43:22;;;;;;;8.75;7.95;;;26.00;47.70;;;;;;5027301;28;20052;-64
2022/07/25 11:46:07;;;;;;;9.45;8.65;;;26.00;47.70;;;;;;5027025;28;20029;-64
2022/07/25 11:48:37;;;;;;;9.13;8.00;;;26.00;48.00;;;;;;5026900;28;20076;-64
2022/07/25 11:51:10;;;;;;;9.15;8.35;;;26.00;47.70;;;;;;5026655;28;20446;-64
2022/07/25 11:53:47;;;;;;;10.30;8.45;;;26.00;47.40;;;;;;5027091;28;20033;-64
2022/07/25 11:56:13;;;;;;;8.88;8.07;;;26.00;47.40;;;;;;5026392;28;20025;-64
2022/07/25 11:58:39;;;;;;;9.07;8.10;;;26.10;47.30;;;;;;5026904;28;20030;-63
2022/07/25 12:01:12;;;;;;;8.52;7.82;;;26.10;47.30;;;;;;5026784;28;20033;-65
2022/07/25 12:03:38;;;;;;;8.80;7.65;;;26.10;47.50;;;;;;5008842;28;20053;-64
2022/07/25 12:06:10;;;;;;;9.20;8.25;;;26.10;47.40;;;;;;5026651;28;20040;-64
2022/07/25 12:08:40;;;;;;;8.98;8.07;;;26.10;47.50;;;;;;5026631;28;20037;-64
2022/07/25 12:11:19;;;;;;;9.85;8.00;;;26.10;47.10;;;;;;5027045;28;20026;-64
2022/07/25 12:13:44;;;;;;;8.07;7.38;;;26.10;47.30;;;;;;5026647;28;20045;-64
2022/07/25 12:16:10;;;;;;;9.45;8.20;;;26.10;47.60;;;;;;5026574;28;20312;-63
2022/07/25 12:18:36;;;;;;;7.82;7.05;;;26.20;46.80;;;;;;5026360;28;20034;-64
2022/07/25 12:21:02;;;;;;;8.15;7.45;;;26.20;46.50;;;;;;5026685;28;20021;-64
2022/07/25 12:23:27;;;;;;;8.70;7.90;;;26.20;46.40;;;;;;5026558;28;20076;-63
2022/07/25 12:25:53;;;;;;;8.93;8.13;;;26.20;46.00;;;;;;5025437;28;20403;-63
2022/07/25 12:28:18;;;;;;;9.70;8.52;;;26.20;46.00;;;;;;5025290;28;20022;-63
2022/07/25 12:30:44;;;;;;;9.52;7.00;;;26.20;45.90;;;;;;5026564;28;20109;-63
2022/07/25 12:33:10;;;;;;;7.85;7.13;;;26.30;45.90;;;;;;5026505;28;20130;-63
2022/07/25 12:35:36;;;;;;;8.40;7.60;;;26.20;46.80;;;;;;5026198;28;20517;-63
2022/07/25 12:38:01;;;;;;;8.27;7.57;;;26.20;46.30;;;;;;5026816;28;20120;-63
2022/07/25 12:40:27;;;;;;;8.25;7.45;;;26.20;46.00;;;;;;5026032;28;21169;-64
2022/07/25 12:42:52;;;;;;;8.52;7.47;;;26.30;45.90;;;;;;5026320;28;20112;-64
2022/07/25 12:45:18;;;;;;;8.02;7.28;;;26.30;46.00;;;;;;5016120;28;20079;-63